Time;durP1;ratioP1;P1;durP2;ratioP2;P2;SDS_P1;SDS_P2;PMS_P1;PMS_P2;Temp;Humidity;BMP_temperature;BMP_pressure;BME280_temperature;BME280_humidity;BME280_pressure;Samples;Min_cycle;Max_cycle;Signal;HPM_P1;HPM_P2
2023/07/12 00:01:19;;;;;;;;;15.00;14.00;29.40;51.50;;;;;;111132;1246;53574;-69
2023/07/12 00:03:47;;;;;;;;;14.00;14.00;29.40;51.50;;;;;;111132;1244;44655;-69
2023/07/12 00:06:19;;;;;;;;;17.00;15.00;29.40;51.50;;;;;;111317;1246;50138;-70
2023/07/12 00:08:47;;;;;;;;;16.75;16.25;29.40;51.50;;;;;;111124;1241;49543;-68
2023/07/12 00:11:17;;;;;;;;;15.00;14.50;29.40;51.50;;;;;;111085;1247;53347;-70
2023/07/12 00:13:44;;;;;;;;;15.00;14.33;29.30;51.60;;;;;;111108;1247;44577;-68
2023/07/12 00:16:22;;;;;;;;;16.00;15.00;29.30;51.60;;;;;;111400;1247;49159;-70
2023/07/12 00:18:49;;;;;;;;;15.00;14.33;29.30;51.70;;;;;;111108;1245;49595;-69
2023/07/12 00:21:23;;;;;;;;;14.33;14.00;29.30;51.40;;;;;;111124;1247;53913;-69
2023/07/12 00:23:53;;;;;;;;;16.00;15.00;29.30;51.50;;;;;;111128;1242;44806;-71
2023/07/12 00:26:22;;;;;;;;;17.00;15.75;29.30;51.40;;;;;;111406;1241;50289;-71
2023/07/12 00:28:49;;;;;;;;;16.50;15.50;29.30;51.50;;;;;;111149;1246;50467;-72
2023/07/12 00:31:16;;;;;;;;;16.75;16.00;29.30;51.40;;;;;;111137;1245;54789;-72
2023/07/12 00:33:43;;;;;;;;;16.00;14.75;29.30;51.40;;;;;;111102;1245;44191;-71
2023/07/12 00:36:25;;;;;;;;;15.67;14.00;29.30;51.40;;;;;;111408;1247;49223;-71
2023/07/12 00:38:53;;;;;;;;;17.00;15.00;29.30;51.00;;;;;;111087;1244;48991;-70
2023/07/12 00:41:27;;;;;;;;;14.00;13.25;29.30;51.40;;;;;;111127;1247;53278;-69
2023/07/12 00:44:05;;;;;;;;;16.00;15.00;29.30;51.60;;;;;;111067;1247;45295;-70
2023/07/12 00:46:46;;;;;;;;;16.00;15.00;29.20;51.40;;;;;;111286;1244;49467;-70
2023/07/12 00:49:13;;;;;;;;;16.00;15.00;29.20;51.40;;;;;;111073;1244;49791;-69
2023/07/12 00:51:59;;;;;;;;;17.00;16.00;29.20;51.40;;;;;;111118;1243;53795;-72
2023/07/12 00:54:47;;;;;;;;;16.00;14.50;29.20;51.40;;;;;;111448;1247;44478;-73
2023/07/12 00:57:14;;;;;;;;;14.25;13.00;29.20;51.50;;;;;;111107;1246;48882;-70
2023/07/12 00:59:42;;;;;;;;;16.75;15.50;29.20;51.40;;;;;;111086;1248;49543;-69
2023/07/12 01:02:09;;;;;;;;;17.33;14.33;29.20;51.30;;;;;;111090;1246;54164;-69
2023/07/12 01:04:41;;;;;;;;;17.00;16.00;29.20;51.30;;;;;;111380;1243;45150;-70
2023/07/12 01:07:08;;;;;;;;;14.25;13.50;29.10;51.30;;;;;;111054;1244;48827;-70
2023/07/12 01:09:35;;;;;;;;;16.25;14.75;29.10;51.50;;;;;;111125;1247;49154;-70
2023/07/12 01:12:03;;;;;;;;;17.00;15.00;29.10;51.30;;;;;;111130;1241;54040;-72
2023/07/12 01:14:30;;;;;;;;;15.00;14.25;29.10;51.30;;;;;;111405;1247;44948;-71
2023/07/12 01:17:02;;;;;;;;;16.00;14.75;29.10;51.40;;;;;;111084;1241;48999;-70
2023/07/12 01:19:31;;;;;;;;;17.75;15.25;29.10;51.30;;;;;;111079;1243;49372;-69
2023/07/12 01:21:58;;;;;;;;;15.33;13.00;29.10;51.50;;;;;;111058;1244;53898;-70
2023/07/12 01:24:27;;;;;;;;;16.25;14.25;29.10;51.30;;;;;;111340;1246;45087;-71
2023/07/12 01:26:57;;;;;;;;;15.00;14.00;29.10;51.40;;;;;;111127;1241;48790;-71
2023/07/12 01:29:25;;;;;;;;;15.00;14.00;29.10;51.30;;;;;;111171;1243;49657;-71
2023/07/12 01:31:52;;;;;;;;;15.00;14.00;29.10;51.30;;;;;;111123;1247;53506;-70
2023/07/12 01:34:19;;;;;;;;;17.25;15.50;29.10;51.30;;;;;;111286;1247;44757;-71
2023/07/12 01:36:46;;;;;;;;;15.00;14.50;29.10;51.30;;;;;;111237;1243;49892;-70
2023/07/12 01:39:13;;;;;;;;;17.50;16.00;29.10;51.40;;;;;;111113;1247;49013;-71
2023/07/12 01:41:40;;;;;;;;;14.50;14.00;29.00;51.30;;;;;;111144;1241;54060;-70
2023/07/12 01:44:07;;;;;;;;;19.33;14.67;29.00;51.50;;;;;;111151;1242;45056;-70
2023/07/12 01:46:34;;;;;;;;;14.00;12.50;29.00;51.30;;;;;;111300;1246;49693;-70
2023/07/12 01:49:01;;;;;;;;;16.00;14.00;29.00;51.40;;;;;;111052;1247;49220;-69
2023/07/12 01:51:29;;;;;;;;;16.50;15.00;29.00;51.30;;;;;;111124;1243;53253;-70
2023/07/12 01:53:56;;;;;;;;;15.00;14.00;29.00;51.50;;;;;;111030;1241;45031;-70
2023/07/12 01:56:23;;;;;;;;;15.67;14.00;29.00;51.30;;;;;;111357;1247;49614;-70
2023/07/12 01:58:50;;;;;;;;;16.33;14.67;28.90;51.30;;;;;;111055;1241;49533;-68
2023/07/12 02:01:17;;;;;;;;;15.00;14.50;29.00;51.60;;;;;;111058;1247;54069;-69
2023/07/12 02:03:44;;;;;;;;;14.00;13.33;28.90;51.30;;;;;;111049;1247;44076;-70
2023/07/12 02:06:11;;;;;;;;;15.25;14.50;28.90;51.30;;;;;;111352;1247;49292;-70
2023/07/12 02:08:38;;;;;;;;;13.33;12.67;28.90;51.50;;;;;;111123;1243;50181;-71
2023/07/12 02:11:05;;;;;;;;;14.50;14.25;28.90;51.30;;;;;;111101;1243;53172;-70
2023/07/12 02:13:32;;;;;;;;;13.50;13.00;28.90;51.40;;;;;;111035;1247;45320;-69
2023/07/12 02:15:59;;;;;;;;;16.00;15.75;28.90;51.30;;;;;;111352;1247;49043;-69
2023/07/12 02:18:26;;;;;;;;;14.67;13.67;28.90;51.60;;;;;;110867;1248;49896;-69
2023/07/12 02:20:53;;;;;;;;;15.67;14.67;28.90;51.40;;;;;;111026;1243;54589;-71
2023/07/12 02:23:20;;;;;;;;;14.00;13.33;28.90;51.30;;;;;;111053;1241;45366;-70
2023/07/12 02:25:48;;;;;;;;;14.00;13.67;28.90;51.40;;;;;;111373;1246;49683;-71
2023/07/12 02:28:15;;;;;;;;;14.00;13.00;28.90;51.40;;;;;;111054;1246;49250;-71
2023/07/12 02:30:42;;;;;;;;;14.00;13.75;28.90;51.40;;;;;;111112;1245;53761;-70
2023/07/12 02:33:09;;;;;;;;;18.00;13.75;28.80;51.30;;;;;;111130;1247;45444;-71
2023/07/12 02:35:39;;;;;;;;;13.00;12.50;28.80;51.30;;;;;;111379;1247;49835;-72
2023/07/12 02:38:07;;;;;;;;;13.50;13.00;28.80;51.50;;;;;;111043;1241;49555;-71
2023/07/12 02:40:34;;;;;;;;;14.33;14.00;28.80;51.30;;;;;;111102;1247;53525;-70
2023/07/12 02:43:01;;;;;;;;;16.00;15.00;28.80;51.30;;;;;;111084;1244;45098;-71
2023/07/12 02:45:28;;;;;;;;;14.50;13.25;28.80;51.30;;;;;;111346;1247;48850;-72
2023/07/12 02:47:55;;;;;;;;;14.33;13.67;28.80;51.50;;;;;;111020;1243;49591;-72
2023/07/12 02:50:22;;;;;;;;;16.00;14.00;28.80;51.30;;;;;;111025;1247;53710;-72
2023/07/12 02:52:49;;;;;;;;;13.25;12.25;28.80;51.30;;;;;;111052;1247;44893;-73
2023/07/12 02:55:16;;;;;;;;;13.50;13.25;28.70;51.30;;;;;;111366;1245;48996;-70
2023/07/12 02:57:43;;;;;;;;;17.00;15.50;28.70;51.30;;;;;;111050;1246;49951;-69
2023/07/12 03:00:11;;;;;;;;;13.00;12.00;28.70;51.20;;;;;;111124;1244;54091;-70
2023/07/12 03:02:38;;;;;;;;;14.00;12.00;28.70;51.30;;;;;;111088;1243;45453;-71
2023/07/12 03:05:05;;;;;;;;;13.00;12.00;28.70;51.50;;;;;;111191;1245;48793;-69
2023/07/12 03:07:34;;;;;;;;;17.00;15.00;28.70;51.30;;;;;;111040;1244;48945;-70
2023/07/12 03:10:01;;;;;;;;;16.00;15.00;28.70;51.40;;;;;;111058;1244;54608;-70
2023/07/12 03:12:28;;;;;;;;;14.00;13.33;28.70;51.20;;;;;;111028;1245;45826;-69
2023/07/12 03:14:56;;;;;;;;;14.00;13.00;28.70;51.30;;;;;;111358;1245;48720;-68
2023/07/12 03:17:23;;;;;;;;;14.00;13.25;28.70;51.20;;;;;;111020;1243;49545;-68
2023/07/12 03:19:50;;;;;;;;;12.00;11.00;28.70;51.20;;;;;;110998;1243;54648;-71
2023/07/12 03:22:18;;;;;;;;;15.67;14.33;28.70;51.20;;;;;;111070;1247;44662;-69
2023/07/12 03:24:45;;;;;;;;;16.50;15.00;28.70;51.20;;;;;;111312;1241;49180;-66
2023/07/12 03:27:12;;;;;;;;;14.50;12.50;28.70;51.20;;;;;;110994;1245;49118;-68
2023/07/12 03:29:39;;;;;;;;;14.00;14.00;28.70;51.10;;;;;;111032;1247;54315;-68
2023/07/12 03:32:06;;;;;;;;;14.00;13.00;28.70;51.10;;;;;;111035;1247;44148;-69
2023/07/12 03:34:33;;;;;;;;;14.50;14.50;28.70;51.30;;;;;;111344;1247;49684;-68
2023/07/12 03:37:00;;;;;;;;;15.33;14.67;28.70;51.20;;;;;;111066;1246;49147;-68
2023/07/12 03:39:28;;;;;;;;;14.75;13.00;28.70;51.30;;;;;;111081;1244;54207;-69
2023/07/12 03:41:55;;;;;;;;;13.00;12.00;28.70;51.40;;;;;;111053;1241;44395;-68
2023/07/12 03:44:22;;;;;;;;;15.00;14.67;28.70;51.10;;;;;;111261;1243;50255;-69
2023/07/12 03:46:49;;;;;;;;;13.00;13.00;28.60;51.10;;;;;;111062;1247;49454;-68
2023/07/12 03:49:16;;;;;;;;;14.00;13.00;28.60;51.10;;;;;;111024;1247;54840;-69
2023/07/12 03:51:42;;;;;;;;;14.00;12.75;28.60;51.10;;;;;;111044;1243;43981;-69
2023/07/12 03:54:09;;;;;;;;;14.00;12.00;28.60;51.10;;;;;;111149;1244;49814;-70
2023/07/12 03:56:36;;;;;;;;;13.00;12.50;28.60;51.10;;;;;;111232;1243;49476;-69
2023/07/12 03:59:03;;;;;;;;;13.00;12.00;28.60;51.10;;;;;;111015;1245;53949;-67
2023/07/12 04:01:30;;;;;;;;;13.00;12.00;28.60;51.10;;;;;;111045;1244;44587;-67
2023/07/12 04:03:58;;;;;;;;;17.75;15.25;28.60;51.10;;;;;;111072;1247;48903;-68
2023/07/12 04:06:25;;;;;;;;;16.25;14.50;28.60;51.50;;;;;;111364;1247;49702;-67
2023/07/12 04:08:52;;;;;;;;;13.00;12.25;28.60;51.30;;;;;;111074;1244;54018;-68
2023/07/12 04:11:30;;;;;;;;;12.00;11.50;28.70;51.10;;;;;;111117;1243;45560;-69
2023/07/12 04:14:02;;;;;;;;;13.33;13.33;28.70;51.10;;;;;;111056;1248;50415;-67
2023/07/12 04:16:29;;;;;;;;;14.50;12.50;28.70;51.10;;;;;;111305;1241;49196;-69
2023/07/12 04:18:57;;;;;;;;;14.00;13.00;28.70;51.10;;;;;;111045;1243;54008;-68
2023/07/12 04:21:24;;;;;;;;;14.00;12.67;28.70;51.20;;;;;;111038;1246;44361;-65
2023/07/12 04:23:52;;;;;;;;;14.00;13.00;28.70;51.00;;;;;;111042;1243;50083;-67
2023/07/12 04:26:20;;;;;;;;;15.33;14.67;28.70;51.00;;;;;;111324;1244;49248;-70
2023/07/12 04:28:50;;;;;;;;;11.00;10.33;28.70;51.00;;;;;;111004;1245;54359;-62
2023/07/12 04:31:19;;;;;;;;;13.75;12.50;28.70;51.00;;;;;;110954;1241;45003;-65
2023/07/12 04:33:47;;;;;;;;;12.25;12.00;28.70;51.00;;;;;;110968;1247;49629;-65
2023/07/12 04:36:17;;;;;;;;;15.00;14.00;28.70;51.00;;;;;;110997;1243;48836;-66
2023/07/12 04:38:44;;;;;;;;;14.00;13.00;28.70;51.00;;;;;;110967;1247;53197;-66
2023/07/12 04:41:12;;;;;;;;;14.33;13.00;28.70;51.00;;;;;;110922;1246;45031;-65
2023/07/12 04:43:39;;;;;;;;;13.00;12.00;28.70;51.00;;;;;;110962;1243;49180;-71
2023/07/12 04:46:06;;;;;;;;;35.25;30.00;28.60;51.00;;;;;;111017;1247;50335;-68
2023/07/12 04:48:33;;;;;;;;;37.33;31.00;28.60;49.50;;;;;;110984;1244;53831;-67
2023/07/12 04:51:03;;;;;;;;;33.50;29.50;28.50;49.00;;;;;;111002;1247;44809;-65
2023/07/12 04:53:31;;;;;;;;;31.00;28.00;28.40;49.00;;;;;;111018;1243;49906;-66
2023/07/12 04:55:58;;;;;;;;;25.75;24.75;28.40;49.00;;;;;;110963;1247;49175;-64
2023/07/12 04:58:26;;;;;;;;;28.75;27.50;28.40;49.30;;;;;;110982;1246;53520;-65
2023/07/12 05:00:55;;;;;;;;;27.00;26.00;28.40;49.70;;;;;;110981;1247;44136;-66
2023/07/12 05:03:22;;;;;;;;;25.50;23.50;28.40;49.40;;;;;;110998;1241;49365;-66
2023/07/12 05:05:49;;;;;;;;;23.00;22.67;28.40;48.60;;;;;;110953;1247;49740;-66
2023/07/12 05:08:16;;;;;;;;;26.50;24.50;28.40;48.10;;;;;;110968;1247;53922;-64
2023/07/12 05:10:43;;;;;;;;;23.25;22.00;28.40;48.20;;;;;;110959;1246;44528;-64
2023/07/12 05:13:10;;;;;;;;;22.75;21.50;28.40;48.20;;;;;;110962;1247;50459;-64
2023/07/12 05:15:37;;;;;;;;;24.00;21.00;28.40;48.40;;;;;;110724;1241;49297;-64
2023/07/12 05:18:04;;;;;;;;;22.00;21.00;28.40;48.50;;;;;;110947;1247;53968;-64
2023/07/12 05:20:31;;;;;;;;;52.67;37.33;28.40;48.50;;;;;;110968;1242;45232;-66
2023/07/12 05:22:58;;;;;;;;;54.67;41.33;28.30;49.20;;;;;;110974;1247;50021;-65
2023/07/12 05:25:25;;;;;;;;;45.00;37.33;28.30;49.30;;;;;;110770;1246;50174;-65
2023/07/12 05:27:52;;;;;;;;;44.33;32.67;28.30;49.60;;;;;;110953;1247;53567;-65
2023/07/12 05:30:19;;;;;;;;;45.33;36.33;28.30;49.90;;;;;;110965;1247;44944;-65
2023/07/12 05:32:46;;;;;;;;;47.50;35.50;28.30;50.40;;;;;;110976;1241;49131;-65
2023/07/12 05:35:13;;;;;;;;;45.67;35.67;28.30;50.30;;;;;;110826;1244;50421;-65
2023/07/12 05:37:40;;;;;;;;;48.00;36.50;28.20;50.90;;;;;;110515;1241;618537;-64
2023/07/12 05:40:09;;;;;;;;;43.00;34.00;28.20;51.20;;;;;;110988;1247;44855;-65
2023/07/12 05:42:40;;;;;;;;;45.75;37.75;28.20;51.60;;;;;;110989;1242;49158;-65
2023/07/12 05:45:09;;;;;;;;;41.00;32.67;28.20;51.50;;;;;;110985;1241;49233;-64
2023/07/12 05:47:37;;;;;;;;;42.33;33.00;28.20;50.80;;;;;;111008;1241;53908;-64
2023/07/12 05:50:05;;;;;;;;;41.67;32.67;28.20;50.70;;;;;;110970;1244;45099;-64
2023/07/12 05:52:32;;;;;;;;;39.75;32.25;28.20;50.70;;;;;;110968;1244;48927;-66
2023/07/12 05:54:59;;;;;;;;;37.50;32.50;28.20;51.80;;;;;;110967;1244;49789;-66
2023/07/12 05:57:27;;;;;;;;;34.00;29.50;28.20;51.50;;;;;;110974;1242;53780;-66
2023/07/12 05:59:54;;;;;;;;;35.50;32.00;28.20;51.90;;;;;;110939;1244;45465;-67
2023/07/12 06:02:21;;;;;;;;;38.25;30.25;28.10;51.30;;;;;;110968;1247;50104;-66
2023/07/12 06:04:48;;;;;;;;;43.50;34.00;28.10;51.90;;;;;;111037;1244;48964;-67
2023/07/12 06:07:15;;;;;;;;;34.67;31.00;28.10;52.10;;;;;;111030;1246;54529;-68
2023/07/12 06:09:42;;;;;;;;;37.33;31.00;28.00;51.90;;;;;;111104;1244;45078;-67
2023/07/12 06:12:10;;;;;;;;;30.50;26.50;28.00;52.00;;;;;;111046;1241;49476;-68
2023/07/12 06:14:37;;;;;;;;;37.00;30.00;28.10;51.90;;;;;;110928;1241;50452;-67
2023/07/12 06:17:05;;;;;;;;;34.67;29.33;28.10;51.80;;;;;;111033;1242;54503;-68
2023/07/12 06:19:32;;;;;;;;;37.50;30.50;28.10;51.70;;;;;;110968;1241;44709;-66
2023/07/12 06:21:59;;;;;;;;;27.25;25.50;28.10;51.70;;;;;;110961;1246;49529;-70
2023/07/12 06:24:26;;;;;;;;;35.50;29.50;28.20;52.20;;;;;;110941;1246;49388;-67
2023/07/12 06:26:53;;;;;;;;;31.25;29.50;28.20;52.10;;;;;;110973;1247;54471;-68
2023/07/12 06:29:22;;;;;;;;;29.00;28.00;28.20;51.80;;;;;;110938;1241;45791;-68
2023/07/12 06:31:50;;;;;;;;;33.00;28.00;28.30;52.30;;;;;;111024;1242;50519;-69
2023/07/12 06:34:17;;;;;;;;;34.25;29.25;28.30;52.20;;;;;;110960;1241;49422;-66
2023/07/12 06:36:44;;;;;;;;;31.50;27.00;28.30;51.80;;;;;;110970;1247;54728;-67
2023/07/12 06:39:11;;;;;;;;;33.75;29.00;28.40;51.80;;;;;;110995;1247;44049;-69
2023/07/12 06:41:38;;;;;;;;;30.50;27.50;28.40;52.00;;;;;;111043;1247;49148;-71
2023/07/12 06:44:05;;;;;;;;;28.50;26.00;28.40;51.90;;;;;;110908;1247;49706;-68
2023/07/12 06:46:32;;;;;;;;;30.25;28.75;28.50;52.00;;;;;;111195;1244;54189;-70
2023/07/12 06:48:59;;;;;;;;;36.33;29.00;28.50;51.80;;;;;;111035;1241;44677;-67
2023/07/12 06:51:26;;;;;;;;;31.50;28.50;28.50;52.10;;;;;;110972;1245;49920;-67
2023/07/12 06:53:53;;;;;;;;;32.00;29.00;28.60;51.90;;;;;;110948;1246;49626;-67
2023/07/12 06:56:20;;;;;;;;;35.33;30.33;28.60;51.60;;;;;;111374;1244;53978;-69
2023/07/12 06:58:47;;;;;;;;;31.00;28.67;28.70;51.80;;;;;;110935;1241;45470;-69
2023/07/12 07:01:14;;;;;;;;;27.75;26.25;28.70;51.70;;;;;;110934;1241;49497;-72
2023/07/12 07:03:41;;;;;;;;;31.00;26.00;28.70;52.00;;;;;;111031;1241;50032;-69
2023/07/12 07:06:08;;;;;;;;;30.50;25.25;28.70;51.80;;;;;;111372;1241;53407;-71
2023/07/12 07:08:35;;;;;;;;;33.67;29.00;28.70;51.60;;;;;;111056;1245;44762;-69
2023/07/12 07:11:02;;;;;;;;;43.00;33.50;28.70;51.40;;;;;;111042;1244;49869;-70
2023/07/12 07:13:29;;;;;;;;;36.00;30.67;28.80;51.50;;;;;;111068;1241;49716;-69
2023/07/12 07:15:56;;;;;;;;;42.25;31.50;28.70;51.20;;;;;;111306;1244;53526;-71
2023/07/12 07:18:23;;;;;;;;;37.75;31.00;28.70;51.60;;;;;;111045;1241;44936;-69
2023/07/12 07:20:52;;;;;;;;;49.00;35.00;28.70;51.60;;;;;;111034;1241;50293;-69
2023/07/12 07:23:19;;;;;;;;;45.33;34.67;28.70;52.30;;;;;;111135;1246;49623;-70
2023/07/12 07:25:46;;;;;;;;;46.00;34.00;28.70;52.30;;;;;;111350;1246;54534;-70
2023/07/12 07:28:13;;;;;;;;;43.33;32.00;28.70;52.40;;;;;;111038;1244;45348;-69
2023/07/12 07:30:40;;;;;;;;;42.00;34.00;28.70;52.20;;;;;;111027;1243;49815;-69
2023/07/12 07:33:07;;;;;;;;;37.00;32.33;28.70;52.60;;;;;;111047;1241;49909;-69
2023/07/12 07:35:36;;;;;;;;;44.00;33.33;28.70;52.50;;;;;;111342;1241;53438;-69
2023/07/12 07:38:03;;;;;;;;;36.33;30.67;28.70;52.50;;;;;;110955;1243;44056;-69
2023/07/12 07:40:30;;;;;;;;;44.75;34.00;28.70;52.60;;;;;;111039;1247;49483;-68
2023/07/12 07:42:57;;;;;;;;;37.00;30.67;28.60;52.80;;;;;;111023;1241;48981;-69
2023/07/12 07:45:24;;;;;;;;;41.50;33.00;28.60;52.80;;;;;;111349;1246;53660;-70
2023/07/12 07:47:51;;;;;;;;;43.50;30.75;28.60;52.90;;;;;;111067;1241;45794;-70
2023/07/12 07:50:20;;;;;;;;;36.00;31.00;28.60;53.00;;;;;;111041;1248;49666;-69
2023/07/12 07:52:47;;;;;;;;;38.33;29.33;28.60;52.80;;;;;;111059;1247;49083;-69
2023/07/12 07:55:15;;;;;;;;;31.33;28.00;28.60;52.80;;;;;;111327;1244;53297;-70
2023/07/12 07:57:42;;;;;;;;;35.67;31.00;28.60;53.10;;;;;;111030;1246;45374;-69
2023/07/12 08:00:11;;;;;;;;;31.25;29.00;28.60;52.90;;;;;;111042;1247;49220;-69
2023/07/12 08:02:38;;;;;;;;;38.75;30.00;28.60;53.30;;;;;;111056;1241;49688;-68
2023/07/12 08:05:06;;;;;;;;;33.67;30.00;28.60;53.00;;;;;;111320;1246;54004;-69
2023/07/12 08:07:38;;;;;;;;;36.00;30.00;28.60;53.00;;;;;;111017;1247;44143;-69
2023/07/12 08:10:07;;;;;;;;;28.75;26.50;28.60;53.10;;;;;;111060;1244;49790;-68
2023/07/12 08:12:34;;;;;;;;;30.00;28.33;28.60;53.30;;;;;;111075;1242;49684;-68
2023/07/12 08:15:02;;;;;;;;;31.00;27.25;28.60;53.10;;;;;;111367;1247;53575;-68
2023/07/12 08:17:29;;;;;;;;;33.00;28.00;28.60;53.40;;;;;;111035;1243;44695;-69
2023/07/12 08:19:56;;;;;;;;;30.33;29.33;28.60;53.30;;;;;;110999;1244;50386;-69
2023/07/12 08:22:24;;;;;;;;;38.00;30.00;28.60;53.10;;;;;;111024;1247;49825;-69
2023/07/12 08:24:51;;;;;;;;;34.50;27.50;28.60;53.40;;;;;;111354;1241;54714;-69
2023/07/12 08:27:18;;;;;;;;;30.33;26.67;28.60;53.20;;;;;;111031;1247;45553;-71
2023/07/12 08:29:45;;;;;;;;;30.00;27.00;28.60;53.20;;;;;;111041;1247;49396;-69
2023/07/12 08:32:12;;;;;;;;;32.50;28.50;28.60;53.20;;;;;;111046;1241;49223;-69
2023/07/12 08:34:39;;;;;;;;;31.25;27.00;28.60;53.20;;;;;;111315;1247;54748;-69
2023/07/12 08:37:06;;;;;;;;;31.00;28.00;28.60;53.20;;;;;;111028;1247;45060;-68
2023/07/12 08:39:33;;;;;;;;;29.25;27.00;28.60;53.20;;;;;;111037;1241;49095;-70
2023/07/12 08:42:00;;;;;;;;;29.00;25.25;28.60;53.20;;;;;;111011;1245;49643;-69
2023/07/12 08:44:30;;;;;;;;;29.00;27.00;28.60;53.50;;;;;;111325;1241;53513;-68
2023/07/12 08:46:58;;;;;;;;;25.50;24.00;28.60;53.50;;;;;;111024;1245;44465;-68
2023/07/12 08:49:26;;;;;;;;;30.00;26.00;28.60;53.30;;;;;;111053;1247;49089;-68
2023/07/12 08:51:59;;;;;;;;;33.00;28.33;28.60;53.30;;;;;;111094;1246;49344;-68
2023/07/12 08:54:34;;;;;;;;;29.00;28.00;28.70;53.40;;;;;;111342;1247;53942;-69
2023/07/12 08:57:18;;;;;;;;;28.00;26.25;28.60;53.40;;;;;;110896;1247;44521;-69
2023/07/12 08:59:48;;;;;;;;;24.00;23.33;28.70;53.40;;;;;;111010;1247;50533;-68
2023/07/12 09:02:23;;;;;;;;;28.50;25.75;28.70;53.30;;;;;;111052;1241;49367;-68
2023/07/12 09:04:53;;;;;;;;;27.25;26.25;28.70;53.40;;;;;;111352;1243;53427;-67
2023/07/12 09:07:27;;;;;;;;;27.25;25.25;28.70;53.40;;;;;;111040;1247;44263;-67
2023/07/12 09:09:55;;;;;;;;;25.67;24.33;28.70;53.30;;;;;;111016;1245;48800;-68
2023/07/12 09:12:28;;;;;;;;;28.00;25.00;28.70;53.50;;;;;;111027;1246;49619;-68
2023/07/12 09:15:02;;;;;;;;;27.00;24.00;28.70;53.30;;;;;;111294;1247;54739;-68
2023/07/12 09:17:34;;;;;;;;;26.67;22.00;28.70;53.30;;;;;;111027;1241;44910;-69
2023/07/12 09:20:03;;;;;;;;;26.33;24.67;28.70;53.30;;;;;;111053;1241;50112;-69
2023/07/12 09:22:30;;;;;;;;;29.75;25.75;28.80;53.20;;;;;;111047;1244;49905;-68
2023/07/12 09:24:57;;;;;;;;;28.25;25.00;28.80;53.20;;;;;;111317;1244;55061;-69
2023/07/12 09:27:27;;;;;;;;;26.67;26.00;28.80;53.20;;;;;;111018;1247;44954;-69
2023/07/12 09:29:59;;;;;;;;;25.33;24.67;28.80;53.20;;;;;;110918;1246;49759;-70
2023/07/12 09:32:34;;;;;;;;;27.33;24.67;28.80;53.40;;;;;;111064;1242;49299;-69
2023/07/12 09:35:26;;;;;;;;;31.00;27.33;28.80;53.10;;;;;;111269;1247;54386;-69
2023/07/12 09:38:08;;;;;;;;;26.25;21.75;28.80;53.00;;;;;;111012;1244;44885;-69
2023/07/12 09:40:41;;;;;;;;;27.67;24.33;28.80;52.80;;;;;;110913;1247;49011;-68
2023/07/12 09:43:23;;;;;;;;;26.50;25.50;28.90;52.70;;;;;;111022;1242;49109;-69
2023/07/12 09:46:22;;;;;;;;;25.25;23.25;28.90;52.60;;;;;;111345;1241;53357;-69
2023/07/12 09:48:53;;;;;;;;;26.00;23.50;28.90;52.60;;;;;;110688;1242;44654;-69
2023/07/12 09:51:39;;;;;;;;;27.50;26.50;28.90;52.50;;;;;;110932;1245;50618;-69
2023/07/12 09:54:29;;;;;;;;;24.25;20.50;28.90;52.30;;;;;;111088;1248;49858;-67
2023/07/12 09:57:07;;;;;;;;;25.00;23.00;28.90;52.50;;;;;;111004;1247;53728;-68
2023/07/12 09:59:44;;;;;;;;;24.67;23.33;28.90;52.60;;;;;;111067;1247;44836;-69
2023/07/12 10:02:19;;;;;;;;;25.75;23.00;29.00;52.90;;;;;;110912;1248;48767;-68
2023/07/12 10:04:54;;;;;;;;;25.00;22.50;29.00;52.80;;;;;;111334;1247;49800;-69
2023/07/12 10:07:36;;;;;;;;;26.00;24.00;29.00;52.80;;;;;;111035;1241;54654;-69
2023/07/12 10:10:17;;;;;;;;;25.00;23.25;29.00;52.70;;;;;;111038;1247;45012;-69
2023/07/12 10:12:55;;;;;;;;;24.00;20.67;29.00;52.80;;;;;;111036;1247;49230;-69
2023/07/12 10:15:33;;;;;;;;;22.25;20.25;29.00;52.70;;;;;;111339;1247;49906;-69
2023/07/12 10:18:00;;;;;;;;;24.00;23.00;29.00;52.80;;;;;;110963;1244;53412;-68
2023/07/12 10:20:28;;;;;;;;;25.33;23.67;29.00;52.90;;;;;;110941;1244;44521;-70
2023/07/12 10:22:56;;;;;;;;;24.00;23.00;29.00;52.60;;;;;;111022;1247;49022;-69
2023/07/12 10:25:30;;;;;;;;;22.00;21.33;29.10;52.70;;;;;;111361;1244;49001;-69
2023/07/12 10:28:14;;;;;;;;;26.00;24.00;29.00;52.80;;;;;;111060;1241;54958;-69
2023/07/12 10:30:41;;;;;;;;;21.00;20.00;29.00;52.50;;;;;;111048;1248;44638;-69
2023/07/12 10:33:23;;;;;;;;;24.50;22.00;29.10;52.80;;;;;;111044;1247;50179;-69
2023/07/12 10:36:02;;;;;;;;;27.00;24.33;29.10;52.50;;;;;;111336;1243;48914;-69
2023/07/12 10:38:29;;;;;;;;;22.67;21.33;29.10;52.60;;;;;;111098;1243;53669;-69
2023/07/12 10:41:05;;;;;;;;;23.00;21.33;29.10;52.50;;;;;;111030;1241;44410;-68
2023/07/12 10:43:38;;;;;;;;;25.33;23.00;29.10;52.40;;;;;;110981;1243;48861;-68
2023/07/12 10:46:09;;;;;;;;;24.67;23.67;29.10;52.40;;;;;;111313;1243;49369;-69
2023/07/12 10:48:38;;;;;;;;;23.25;22.50;29.10;52.40;;;;;;111053;1241;53891;-69
2023/07/12 10:51:30;;;;;;;;;24.33;21.33;29.10;52.40;;;;;;111065;1243;44026;-69
2023/07/12 10:53:57;;;;;;;;;20.67;20.33;29.10;52.40;;;;;;111086;1242;48869;-69
2023/07/12 10:56:34;;;;;;;;;21.50;20.50;29.10;52.60;;;;;;111346;1247;50015;-69
2023/07/12 10:59:04;;;;;;;;;21.00;20.00;29.10;52.50;;;;;;111023;1247;53807;-68
2023/07/12 11:01:40;;;;;;;;;21.00;20.00;29.10;52.80;;;;;;111057;1244;44370;-68
2023/07/12 11:04:11;;;;;;;;;24.75;24.25;29.20;52.50;;;;;;111100;1243;49432;-68
2023/07/12 11:07:01;;;;;;;;;21.50;20.00;29.20;52.60;;;;;;111225;1247;49735;-68
2023/07/12 11:09:43;;;;;;;;;22.00;21.00;29.20;52.50;;;;;;111038;1244;54319;-69
2023/07/12 11:12:27;;;;;;;;;22.50;20.50;29.20;52.40;;;;;;111040;1247;45065;-68
2023/07/12 11:15:16;;;;;;;;;20.25;18.25;29.20;52.60;;;;;;111335;1241;50260;-68
2023/07/12 11:17:48;;;;;;;;;20.50;20.00;29.20;52.50;;;;;;110927;1244;50399;-69
2023/07/12 11:20:24;;;;;;;;;25.00;21.33;29.30;52.50;;;;;;111027;1247;53882;-68
2023/07/12 11:23:01;;;;;;;;;21.00;19.00;29.30;52.50;;;;;;111080;1244;44366;-69
2023/07/12 11:25:30;;;;;;;;;22.00;20.50;29.30;52.50;;;;;;111226;1247;50113;-69
2023/07/12 11:28:00;;;;;;;;;21.67;21.33;29.30;52.60;;;;;;111036;1241;49608;-68
2023/07/12 11:30:27;;;;;;;;;24.33;23.33;29.30;52.50;;;;;;111073;1242;54609;-68
2023/07/12 11:33:15;;;;;;;;;22.50;21.25;29.30;52.50;;;;;;111060;1246;44603;-69
2023/07/12 11:35:47;;;;;;;;;22.75;20.75;29.30;52.50;;;;;;111263;1244;49628;-69
2023/07/12 11:38:18;;;;;;;;;21.00;20.00;29.30;52.80;;;;;;111059;1246;49472;-69
2023/07/12 11:40:48;;;;;;;;;20.00;19.00;29.30;52.80;;;;;;111061;1247;53253;-68
2023/07/12 11:43:36;;;;;;;;;23.00;22.00;29.40;52.60;;;;;;111099;1247;45612;-69
2023/07/12 11:46:12;;;;;;;;;22.00;20.00;29.40;52.70;;;;;;111314;1247;49447;-69
2023/07/12 11:48:43;;;;;;;;;21.00;19.00;29.40;52.70;;;;;;111047;1247;49935;-69
2023/07/12 11:51:21;;;;;;;;;23.00;22.00;29.40;52.60;;;;;;110994;1244;53881;-69
2023/07/12 11:53:55;;;;;;;;;21.33;20.00;29.40;52.70;;;;;;110942;1247;44727;-69
2023/07/12 11:56:23;;;;;;;;;23.00;21.33;29.40;52.70;;;;;;111329;1243;49320;-68
2023/07/12 11:58:50;;;;;;;;;21.00;19.25;29.40;52.60;;;;;;111052;1241;49529;-68
2023/07/12 12:01:20;;;;;;;;;20.00;19.00;29.40;52.60;;;;;;111056;1247;53443;-68
2023/07/12 12:03:48;;;;;;;;;23.00;21.50;29.50;52.60;;;;;;111066;1241;45453;-68
2023/07/12 12:06:17;;;;;;;;;21.67;21.00;29.40;52.60;;;;;;111355;1241;50153;-68
2023/07/12 12:08:48;;;;;;;;;21.33;21.00;29.50;52.70;;;;;;111048;1242;49622;-68
2023/07/12 12:11:15;;;;;;;;;22.50;21.25;29.50;53.20;;;;;;111062;1241;53372;-69
2023/07/12 12:13:48;;;;;;;;;21.67;20.00;29.50;52.60;;;;;;111099;1241;44858;-69
2023/07/12 12:16:27;;;;;;;;;24.67;22.67;29.50;52.60;;;;;;111344;1246;49119;-68
2023/07/12 12:18:58;;;;;;;;;24.25;22.25;29.50;52.70;;;;;;111038;1244;49193;-68
2023/07/12 12:21:25;;;;;;;;;23.00;20.33;29.50;52.10;;;;;;111032;1247;54132;-69
2023/07/12 12:23:57;;;;;;;;;23.00;22.00;29.50;52.70;;;;;;111055;1242;45065;-67
2023/07/12 12:26:32;;;;;;;;;22.00;21.00;29.50;52.50;;;;;;111354;1241;49587;-69
2023/07/12 12:29:12;;;;;;;;;25.00;23.50;29.50;52.50;;;;;;111095;1246;49565;-68
2023/07/12 12:31:54;;;;;;;;;24.33;23.00;29.50;52.30;;;;;;110928;1244;54147;-68